TAF Text Data
IDs:
Format:
Raw Decoded Include METAR

Data at: 0615 UTC 28 Sep 2022

PAFA 280553Z 03003KT 10SM CLR 03/00 A2980 RMK AO2 SLP099 T00280000 10056 20022 50000

TAF COR PAFA 280530Z 2806/2912 VRB03KT P6SM VCFG SCT100
  FM280900 04006KT P6SM VCFG SCT100
  FM281500 04008KT P6SM BKN100